Hlavní strana
METAR-TAF:

METAR-TAF

Letiště :

Clemson, Jižní Karolína, Spojené státy americké

zeměpisná šířka: 34-40-20N, zeměpisná délka: 082-52-53W, výška: 272 m

Aktuální stav počasí

Zpráva byla vytvořena před 1 hodinou a 3 minutami, v 12:54 UTC
Západní vítr 13 kt
Teplota 25°C
Vlhkost vzduchu 79%
Tlak 1014 hPa
Viditelnost: 16.1 km
Jasno

METAR: KCEU 211254Z AUTO 26013KT 10SM CLR 25/21 A2995 RMK AO2 SLP130 T02500211

Čas: 09:57 (13:57 UTC)


TAF: chybějící

Stav a předpovědi počasí z více než 4 000 letišť (zprávy METAR a TAF).

Červené a žluté tečky na mapě představují dostupné meteorologické stanice.

Když kurzor umístíte na tečku, zobrazí se název stanice.

Pak kliknutím zobrazíte stav a předpověď počasí.

Chcete-li změnit mapu, kliknutím na zelené tlačítko se znaménkem +mapu přiblížíte, kliknutím na zelené tlačítko se znaménkem – mapu oddálíte a kliknutím na zelené šipky přejdete na sousední mapy.


METAR-TAF: